sensor_id;sensor_type;location;lat;lon;timestamp;pressure;altitude;pressure_sealevel;temperature;humidity
70930;BME280;58588;48.102;19.682;2022-11-20T00:01:51;99195.06;;;0.79;100.00
70930;BME280;58588;48.102;19.682;2022-11-20T00:04:53;99198.69;;;0.78;100.00
70930;BME280;58588;48.102;19.682;2022-11-20T00:07:56;99203.78;;;0.91;100.00
70930;BME280;58588;48.102;19.682;2022-11-20T00:11:03;99200.00;;;0.84;100.00
70930;BME280;58588;48.102;19.682;2022-11-20T00:14:05;99190.50;;;0.61;100.00
70930;BME280;58588;48.102;19.682;2022-11-20T00:17:07;99207.34;;;0.60;100.00
70930;BME280;58588;48.102;19.682;2022-11-20T00:20:10;99195.91;;;0.59;100.00
70930;BME280;58588;48.102;19.682;2022-11-20T00:23:13;99195.13;;;0.47;100.00
70930;BME280;58588;48.102;19.682;2022-11-20T00:26:17;99197.78;;;0.47;100.00
70930;BME280;58588;48.102;19.682;2022-11-20T00:29:19;99192.63;;;0.46;100.00
70930;BME280;58588;48.102;19.682;2022-11-20T00:32:21;99183.22;;;0.42;100.00
70930;BME280;58588;48.102;19.682;2022-11-20T00:35:23;99178.38;;;0.47;100.00
70930;BME280;58588;48.102;19.682;2022-11-20T00:38:26;99194.34;;;0.36;100.00
70930;BME280;58588;48.102;19.682;2022-11-20T00:41:29;99215.78;;;0.44;100.00
70930;BME280;58588;48.102;19.682;2022-11-20T00:44:31;99224.06;;;0.50;100.00
70930;BME280;58588;48.102;19.682;2022-11-20T00:47:33;99211.22;;;0.35;100.00
70930;BME280;58588;48.102;19.682;2022-11-20T00:50:35;99221.59;;;0.38;100.00
70930;BME280;58588;48.102;19.682;2022-11-20T00:53:38;99222.16;;;0.20;100.00
70930;BME280;58588;48.102;19.682;2022-11-20T00:56:40;99216.66;;;0.33;100.00
70930;BME280;58588;48.102;19.682;2022-11-20T00:59:42;99208.47;;;0.36;100.00
70930;BME280;58588;48.102;19.682;2022-11-20T01:02:44;99205.97;;;0.23;100.00
70930;BME280;58588;48.102;19.682;2022-11-20T01:05:46;99208.00;;;0.31;100.00
70930;BME280;58588;48.102;19.682;2022-11-20T01:08:53;99205.69;;;0.06;100.00
70930;BME280;58588;48.102;19.682;2022-11-20T01:11:55;99219.03;;;0.15;100.00
70930;BME280;58588;48.102;19.682;2022-11-20T01:14:57;99229.91;;;0.33;100.00
70930;BME280;58588;48.102;19.682;2022-11-20T01:17:59;99227.91;;;0.25;100.00
70930;BME280;58588;48.102;19.682;2022-11-20T01:21:03;99219.50;;;0.41;100.00
70930;BME280;58588;48.102;19.682;2022-11-20T01:24:08;99204.66;;;0.50;100.00
70930;BME280;58588;48.102;19.682;2022-11-20T01:27:11;99197.69;;;0.49;100.00
70930;BME280;58588;48.102;19.682;2022-11-20T01:30:13;99209.69;;;0.53;100.00
70930;BME280;58588;48.102;19.682;2022-11-20T01:33:15;99221.34;;;0.62;100.00
70930;BME280;58588;48.102;19.682;2022-11-20T01:36:18;99213.94;;;0.65;100.00
70930;BME280;58588;48.102;19.682;2022-11-20T01:39:23;99196.69;;;0.71;100.00
70930;BME280;58588;48.102;19.682;2022-11-20T01:42:25;99192.69;;;0.56;100.00
70930;BME280;58588;48.102;19.682;2022-11-20T01:46:13;99190.00;;;0.76;100.00
70930;BME280;58588;48.102;19.682;2022-11-20T01:49:18;99178.56;;;0.76;100.00
70930;BME280;58588;48.102;19.682;2022-11-20T01:52:23;99173.53;;;0.73;100.00
70930;BME280;58588;48.102;19.682;2022-11-20T01:55:31;99168.66;;;0.78;100.00
70930;BME280;58588;48.102;19.682;2022-11-20T01:58:36;99156.94;;;0.80;100.00
70930;BME280;58588;48.102;19.682;2022-11-20T02:01:40;99146.59;;;0.77;100.00
70930;BME280;58588;48.102;19.682;2022-11-20T02:04:42;99146.06;;;0.84;100.00
70930;BME280;58588;48.102;19.682;2022-11-20T02:07:44;99141.03;;;0.80;100.00
70930;BME280;58588;48.102;19.682;2022-11-20T02:10:49;99108.91;;;0.53;100.00
70930;BME280;58588;48.102;19.682;2022-11-20T02:13:50;99121.97;;;0.66;100.00
70930;BME280;58588;48.102;19.682;2022-11-20T02:16:59;99126.84;;;0.40;100.00
70930;BME280;58588;48.102;19.682;2022-11-20T02:20:01;99135.41;;;0.43;100.00
70930;BME280;58588;48.102;19.682;2022-11-20T02:23:07;99125.09;;;0.50;100.00
70930;BME280;58588;48.102;19.682;2022-11-20T02:26:12;99109.28;;;0.39;100.00
70930;BME280;58588;48.102;19.682;2022-11-20T02:29:18;99099.44;;;0.50;100.00
70930;BME280;58588;48.102;19.682;2022-11-20T02:32:22;99084.03;;;0.44;100.00
70930;BME280;58588;48.102;19.682;2022-11-20T02:35:43;99091.47;;;0.50;100.00
70930;BME280;58588;48.102;19.682;2022-11-20T02:38:45;99093.69;;;0.45;100.00
70930;BME280;58588;48.102;19.682;2022-11-20T02:41:49;99104.13;;;0.68;100.00
70930;BME280;58588;48.102;19.682;2022-11-20T02:44:51;99106.78;;;0.47;100.00
70930;BME280;58588;48.102;19.682;2022-11-20T02:47:53;99115.59;;;0.47;100.00
70930;BME280;58588;48.102;19.682;2022-11-20T02:50:55;99114.44;;;0.40;100.00
70930;BME280;58588;48.102;19.682;2022-11-20T02:53:57;99098.63;;;0.08;100.00
70930;BME280;58588;48.102;19.682;2022-11-20T02:57:00;99103.75;;;0.00;100.00
70930;BME280;58588;48.102;19.682;2022-11-20T03:00:04;99114.75;;;0.05;100.00
70930;BME280;58588;48.102;19.682;2022-11-20T03:03:07;99121.81;;;0.16;100.00
70930;BME280;58588;48.102;19.682;2022-11-20T03:06:09;99112.66;;;0.20;100.00
70930;BME280;58588;48.102;19.682;2022-11-20T03:09:11;99106.81;;;0.26;100.00
70930;BME280;58588;48.102;19.682;2022-11-20T03:12:15;99115.69;;;0.36;100.00
70930;BME280;58588;48.102;19.682;2022-11-20T03:15:17;99114.88;;;0.45;100.00
70930;BME280;58588;48.102;19.682;2022-11-20T03:18:19;99103.44;;;0.45;100.00
70930;BME280;58588;48.102;19.682;2022-11-20T03:21:21;99086.69;;;0.44;100.00
70930;BME280;58588;48.102;19.682;2022-11-20T03:24:25;99093.09;;;0.42;100.00
70930;BME280;58588;48.102;19.682;2022-11-20T03:27:32;99112.59;;;0.62;100.00
70930;BME280;58588;48.102;19.682;2022-11-20T03:30:35;99100.03;;;0.64;100.00
70930;BME280;58588;48.102;19.682;2022-11-20T03:33:37;99121.25;;;0.64;100.00
70930;BME280;58588;48.102;19.682;2022-11-20T03:36:40;99114.22;;;0.53;100.00
70930;BME280;58588;48.102;19.682;2022-11-20T03:39:43;99120.50;;;0.52;100.00
70930;BME280;58588;48.102;19.682;2022-11-20T03:42:46;99121.16;;;0.44;100.00
70930;BME280;58588;48.102;19.682;2022-11-20T03:45:48;99119.50;;;0.43;100.00
70930;BME280;58588;48.102;19.682;2022-11-20T03:48:50;99103.31;;;0.46;100.00
70930;BME280;58588;48.102;19.682;2022-11-20T03:51:52;99116.53;;;0.37;100.00
70930;BME280;58588;48.102;19.682;2022-11-20T03:54:54;99133.91;;;0.30;100.00
70930;BME280;58588;48.102;19.682;2022-11-20T03:57:58;99121.31;;;0.43;100.00
70930;BME280;58588;48.102;19.682;2022-11-20T04:01:05;99116.22;;;0.61;100.00
70930;BME280;58588;48.102;19.682;2022-11-20T04:04:07;99121.41;;;0.62;100.00
70930;BME280;58588;48.102;19.682;2022-11-20T04:07:09;99099.13;;;0.74;100.00
70930;BME280;58588;48.102;19.682;2022-11-20T04:10:11;99098.97;;;0.76;100.00
70930;BME280;58588;48.102;19.682;2022-11-20T04:13:14;99087.81;;;0.72;100.00
70930;BME280;58588;48.102;19.682;2022-11-20T04:16:17;99092.59;;;0.78;100.00
70930;BME280;58588;48.102;19.682;2022-11-20T04:19:19;99077.81;;;0.86;100.00
70930;BME280;58588;48.102;19.682;2022-11-20T04:22:21;99075.00;;;0.87;100.00
70930;BME280;58588;48.102;19.682;2022-11-20T04:25:23;99076.25;;;0.83;100.00
70930;BME280;58588;48.102;19.682;2022-11-20T04:28:26;99073.19;;;0.88;100.00
70930;BME280;58588;48.102;19.682;2022-11-20T04:31:30;99070.28;;;0.91;100.00
70930;BME280;58588;48.102;19.682;2022-11-20T04:34:32;99076.25;;;0.83;100.00
70930;BME280;58588;48.102;19.682;2022-11-20T04:37:34;99080.56;;;0.74;100.00
70930;BME280;58588;48.102;19.682;2022-11-20T04:40:36;99068.72;;;0.78;100.00
70930;BME280;58588;48.102;19.682;2022-11-20T04:43:46;99057.34;;;0.67;100.00
70930;BME280;58588;48.102;19.682;2022-11-20T04:46:47;99073.91;;;0.59;100.00
70930;BME280;58588;48.102;19.682;2022-11-20T04:49:49;99086.34;;;0.59;100.00
70930;BME280;58588;48.102;19.682;2022-11-20T04:52:51;99077.28;;;0.61;100.00
70930;BME280;58588;48.102;19.682;2022-11-20T04:55:59;99083.03;;;0.66;100.00
70930;BME280;58588;48.102;19.682;2022-11-20T04:59:03;99067.13;;;0.66;100.00
70930;BME280;58588;48.102;19.682;2022-11-20T05:02:04;99059.59;;;0.71;100.00
70930;BME280;58588;48.102;19.682;2022-11-20T05:05:07;99046.31;;;0.71;100.00
70930;BME280;58588;48.102;19.682;2022-11-20T05:08:09;99036.44;;;0.73;100.00
70930;BME280;58588;48.102;19.682;2022-11-20T05:11:12;99029.41;;;0.63;100.00
70930;BME280;58588;48.102;19.682;2022-11-20T05:14:16;99022.88;;;0.67;100.00
70930;BME280;58588;48.102;19.682;2022-11-20T05:17:18;99024.06;;;0.53;100.00
70930;BME280;58588;48.102;19.682;2022-11-20T05:20:20;99008.03;;;0.55;100.00
70930;BME280;58588;48.102;19.682;2022-11-20T05:23:22;99019.25;;;0.68;100.00
70930;BME280;58588;48.102;19.682;2022-11-20T05:26:24;98994.34;;;0.59;100.00
70930;BME280;58588;48.102;19.682;2022-11-20T05:29:28;98990.31;;;0.55;100.00
70930;BME280;58588;48.102;19.682;2022-11-20T05:32:30;98993.94;;;0.64;100.00
70930;BME280;58588;48.102;19.682;2022-11-20T05:35:31;99007.91;;;0.56;100.00
70930;BME280;58588;48.102;19.682;2022-11-20T05:38:33;99008.97;;;0.44;100.00
70930;BME280;58588;48.102;19.682;2022-11-20T05:41:35;99012.59;;;0.43;100.00
70930;BME280;58588;48.102;19.682;2022-11-20T05:44:39;99015.94;;;0.45;100.00
70930;BME280;58588;48.102;19.682;2022-11-20T05:47:41;99030.19;;;0.13;100.00
70930;BME280;58588;48.102;19.682;2022-11-20T05:50:43;99028.75;;;0.09;100.00
70930;BME280;58588;48.102;19.682;2022-11-20T05:53:45;99025.94;;;0.01;100.00
70930;BME280;58588;48.102;19.682;2022-11-20T05:56:47;99016.03;;;0.03;100.00
70930;BME280;58588;48.102;19.682;2022-11-20T05:59:51;99006.56;;;0.10;100.00
70930;BME280;58588;48.102;19.682;2022-11-20T06:02:53;99034.03;;;0.09;100.00
70930;BME280;58588;48.102;19.682;2022-11-20T06:05:55;99031.91;;;0.03;100.00
70930;BME280;58588;48.102;19.682;2022-11-20T06:08:57;99033.13;;;0.20;100.00
70930;BME280;58588;48.102;19.682;2022-11-20T06:12:02;99024.66;;;0.26;100.00
70930;BME280;58588;48.102;19.682;2022-11-20T06:15:06;99031.41;;;0.40;100.00
70930;BME280;58588;48.102;19.682;2022-11-20T06:18:08;99037.53;;;0.31;100.00
70930;BME280;58588;48.102;19.682;2022-11-20T06:21:12;99035.63;;;0.42;100.00
70930;BME280;58588;48.102;19.682;2022-11-20T06:24:14;99025.44;;;0.47;100.00
70930;BME280;58588;48.102;19.682;2022-11-20T06:27:17;99031.75;;;0.56;100.00
70930;BME280;58588;48.102;19.682;2022-11-20T06:30:20;99044.03;;;0.57;100.00
70930;BME280;58588;48.102;19.682;2022-11-20T06:33:22;99050.47;;;0.55;100.00
70930;BME280;58588;48.102;19.682;2022-11-20T06:36:24;99053.13;;;0.64;100.00
70930;BME280;58588;48.102;19.682;2022-11-20T06:39:26;99049.44;;;0.46;100.00
70930;BME280;58588;48.102;19.682;2022-11-20T06:42:28;99055.66;;;0.66;100.00
70930;BME280;58588;48.102;19.682;2022-11-20T06:45:31;99059.19;;;0.76;100.00
70930;BME280;58588;48.102;19.682;2022-11-20T06:48:33;99057.94;;;0.80;100.00
70930;BME280;58588;48.102;19.682;2022-11-20T06:51:35;99049.84;;;0.82;100.00
70930;BME280;58588;48.102;19.682;2022-11-20T06:54:37;99056.59;;;0.95;100.00
70930;BME280;58588;48.102;19.682;2022-11-20T06:57:39;99040.94;;;1.02;100.00
70930;BME280;58588;48.102;19.682;2022-11-20T07:00:43;99061.66;;;1.18;100.00
70930;BME280;58588;48.102;19.682;2022-11-20T07:03:45;99061.13;;;1.14;100.00
70930;BME280;58588;48.102;19.682;2022-11-20T07:06:48;99066.72;;;1.21;100.00
70930;BME280;58588;48.102;19.682;2022-11-20T07:09:49;99051.88;;;1.09;100.00
70930;BME280;58588;48.102;19.682;2022-11-20T07:12:52;99067.28;;;1.24;100.00
70930;BME280;58588;48.102;19.682;2022-11-20T07:15:59;99062.94;;;1.23;100.00
70930;BME280;58588;48.102;19.682;2022-11-20T07:19:01;99072.59;;;1.34;100.00
70930;BME280;58588;48.102;19.682;2022-11-20T07:22:03;99062.41;;;1.39;100.00
70930;BME280;58588;48.102;19.682;2022-11-20T07:25:06;99069.69;;;1.56;100.00
70930;BME280;58588;48.102;19.682;2022-11-20T07:28:08;99054.31;;;1.70;100.00
70930;BME280;58588;48.102;19.682;2022-11-20T07:31:12;99063.53;;;1.75;100.00
70930;BME280;58588;48.102;19.682;2022-11-20T07:34:14;99059.06;;;1.66;100.00
70930;BME280;58588;48.102;19.682;2022-11-20T07:37:16;99047.19;;;1.51;100.00
70930;BME280;58588;48.102;19.682;2022-11-20T07:40:19;99063.81;;;1.63;100.00
70930;BME280;58588;48.102;19.682;2022-11-20T07:43:21;99055.41;;;1.77;100.00
70930;BME280;58588;48.102;19.682;2022-11-20T07:46:27;99059.50;;;1.81;100.00
70930;BME280;58588;48.102;19.682;2022-11-20T07:49:29;99057.94;;;1.88;100.00
70930;BME280;58588;48.102;19.682;2022-11-20T07:52:32;99051.47;;;2.00;100.00
70930;BME280;58588;48.102;19.682;2022-11-20T07:55:40;99042.66;;;2.00;100.00
70930;BME280;58588;48.102;19.682;2022-11-20T07:58:44;99048.41;;;2.05;100.00
70930;BME280;58588;48.102;19.682;2022-11-20T08:01:49;99044.03;;;2.04;100.00
70930;BME280;58588;48.102;19.682;2022-11-20T08:04:51;99045.34;;;2.00;100.00
70930;BME280;58588;48.102;19.682;2022-11-20T08:07:53;99053.41;;;2.18;100.00
70930;BME280;58588;48.102;19.682;2022-11-20T08:10:56;99057.72;;;2.28;100.00
70930;BME280;58588;48.102;19.682;2022-11-20T08:14:18;99054.53;;;2.15;100.00
70930;BME280;58588;48.102;19.682;2022-11-20T08:17:21;99070.00;;;2.39;100.00
70930;BME280;58588;48.102;19.682;2022-11-20T08:20:23;99064.72;;;2.29;100.00
70930;BME280;58588;48.102;19.682;2022-11-20T08:23:25;99057.69;;;2.38;100.00
70930;BME280;58588;48.102;19.682;2022-11-20T08:26:27;99045.41;;;2.27;100.00
70930;BME280;58588;48.102;19.682;2022-11-20T08:29:29;99055.41;;;2.53;100.00
70930;BME280;58588;48.102;19.682;2022-11-20T08:32:32;99071.38;;;2.53;100.00
70930;BME280;58588;48.102;19.682;2022-11-20T08:35:36;99085.94;;;2.86;100.00
70930;BME280;58588;48.102;19.682;2022-11-20T08:38:39;99099.97;;;2.88;100.00
70930;BME280;58588;48.102;19.682;2022-11-20T08:41:40;99093.00;;;2.77;100.00
70930;BME280;58588;48.102;19.682;2022-11-20T08:44:42;99106.81;;;2.81;100.00
70930;BME280;58588;48.102;19.682;2022-11-20T08:47:46;99118.88;;;2.85;100.00
70930;BME280;58588;48.102;19.682;2022-11-20T08:50:48;99110.22;;;2.73;100.00
70930;BME280;58588;48.102;19.682;2022-11-20T08:53:50;99094.59;;;2.60;100.00
70930;BME280;58588;48.102;19.682;2022-11-20T08:56:52;99101.16;;;2.66;100.00
70930;BME280;58588;48.102;19.682;2022-11-20T08:59:54;99092.59;;;2.72;100.00
70930;BME280;58588;48.102;19.682;2022-11-20T09:02:58;99090.59;;;2.37;100.00
70930;BME280;58588;48.102;19.682;2022-11-20T09:06:03;99081.03;;;2.44;100.00
70930;BME280;58588;48.102;19.682;2022-11-20T09:09:05;99077.47;;;2.63;100.00
70930;BME280;58588;48.102;19.682;2022-11-20T09:12:07;99072.72;;;2.66;100.00
70930;BME280;58588;48.102;19.682;2022-11-20T09:15:09;99060.50;;;2.74;100.00
70930;BME280;58588;48.102;19.682;2022-11-20T09:18:13;99057.63;;;2.94;100.00
70930;BME280;58588;48.102;19.682;2022-11-20T09:21:15;99051.78;;;2.81;100.00
70930;BME280;58588;48.102;19.682;2022-11-20T09:24:17;99062.72;;;2.78;100.00
70930;BME280;58588;48.102;19.682;2022-11-20T09:27:21;99072.94;;;2.83;100.00
70930;BME280;58588;48.102;19.682;2022-11-20T09:30:23;99072.44;;;2.97;100.00
70930;BME280;58588;48.102;19.682;2022-11-20T09:33:26;99079.84;;;3.03;100.00
70930;BME280;58588;48.102;19.682;2022-11-20T09:36:28;99082.28;;;2.87;100.00
70930;BME280;58588;48.102;19.682;2022-11-20T09:39:30;99089.69;;;2.93;100.00
70930;BME280;58588;48.102;19.682;2022-11-20T09:42:36;99096.22;;;3.08;100.00
70930;BME280;58588;48.102;19.682;2022-11-20T09:46:02;99104.63;;;3.31;100.00
70930;BME280;58588;48.102;19.682;2022-11-20T09:49:20;99093.06;;;3.40;100.00
70930;BME280;58588;48.102;19.682;2022-11-20T09:52:32;99076.25;;;3.40;100.00
70930;BME280;58588;48.102;19.682;2022-11-20T09:55:38;99067.88;;;3.53;100.00
70930;BME280;58588;48.102;19.682;2022-11-20T09:58:42;99081.28;;;3.43;100.00
70930;BME280;58588;48.102;19.682;2022-11-20T10:01:47;99083.03;;;3.52;100.00
70930;BME280;58588;48.102;19.682;2022-11-20T10:04:55;99070.72;;;3.69;100.00
70930;BME280;58588;48.102;19.682;2022-11-20T10:08:07;99072.09;;;3.91;100.00
70930;BME280;58588;48.102;19.682;2022-11-20T10:11:19;99056.59;;;3.94;100.00
70930;BME280;58588;48.102;19.682;2022-11-20T10:14:31;99061.81;;;4.22;100.00
70930;BME280;58588;48.102;19.682;2022-11-20T10:18:02;99058.09;;;4.41;100.00
70930;BME280;58588;48.102;19.682;2022-11-20T10:21:18;99050.50;;;4.54;100.00
70930;BME280;58588;48.102;19.682;2022-11-20T10:24:44;99043.31;;;4.54;100.00
70930;BME280;58588;48.102;19.682;2022-11-20T10:31:23;99027.09;;;4.74;100.00
70930;BME280;58588;48.102;19.682;2022-11-20T10:34:29;99023.38;;;4.67;100.00
70930;BME280;58588;48.102;19.682;2022-11-20T10:37:35;99018.28;;;4.81;100.00
70930;BME280;58588;48.102;19.682;2022-11-20T10:40:42;99028.56;;;5.19;100.00
70930;BME280;58588;48.102;19.682;2022-11-20T10:43:45;99017.22;;;5.17;100.00
70930;BME280;58588;48.102;19.682;2022-11-20T10:46:48;99020.59;;;5.51;100.00
70930;BME280;58588;48.102;19.682;2022-11-20T10:49:58;99007.75;;;5.63;100.00
70930;BME280;58588;48.102;19.682;2022-11-20T10:53:16;99013.44;;;5.84;100.00
70930;BME280;58588;48.102;19.682;2022-11-20T10:56:24;99017.66;;;6.03;100.00
70930;BME280;58588;48.102;19.682;2022-11-20T10:59:38;99020.09;;;6.29;100.00
70930;BME280;58588;48.102;19.682;2022-11-20T11:02:46;99016.81;;;6.03;96.85
70930;BME280;58588;48.102;19.682;2022-11-20T11:05:51;99009.41;;;6.37;98.77
70930;BME280;58588;48.102;19.682;2022-11-20T11:09:02;99014.25;;;6.42;100.00
70930;BME280;58588;48.102;19.682;2022-11-20T11:12:07;99021.09;;;6.44;98.40
70930;BME280;58588;48.102;19.682;2022-11-20T11:15:13;99012.47;;;6.18;94.50
70930;BME280;58588;48.102;19.682;2022-11-20T11:18:26;99014.63;;;6.31;97.46
70930;BME280;58588;48.102;19.682;2022-11-20T11:21:28;99013.50;;;6.64;98.65
70930;BME280;58588;48.102;19.682;2022-11-20T11:24:32;99015.56;;;6.54;97.58
70930;BME280;58588;48.102;19.682;2022-11-20T11:27:34;99010.41;;;6.28;100.00
70930;BME280;58588;48.102;19.682;2022-11-20T11:30:41;98999.69;;;6.44;99.31
70930;BME280;58588;48.102;19.682;2022-11-20T11:33:44;98997.34;;;6.33;99.35
70930;BME280;58588;48.102;19.682;2022-11-20T11:36:54;99002.63;;;5.94;100.00
70930;BME280;58588;48.102;19.682;2022-11-20T11:39:59;99006.75;;;5.80;100.00
70930;BME280;58588;48.102;19.682;2022-11-20T11:43:02;99004.59;;;5.92;100.00
70930;BME280;58588;48.102;19.682;2022-11-20T11:46:31;99001.75;;;5.94;100.00
70930;BME280;58588;48.102;19.682;2022-11-20T11:49:33;99006.41;;;5.75;100.00
70930;BME280;58588;48.102;19.682;2022-11-20T11:52:38;98995.06;;;5.65;100.00
70930;BME280;58588;48.102;19.682;2022-11-20T11:55:46;98998.38;;;5.75;100.00
70930;BME280;58588;48.102;19.682;2022-11-20T11:58:51;98990.53;;;5.90;100.00
70930;BME280;58588;48.102;19.682;2022-11-20T12:01:59;98991.38;;;5.99;100.00
70930;BME280;58588;48.102;19.682;2022-11-20T12:05:09;98990.38;;;6.00;100.00
70930;BME280;58588;48.102;19.682;2022-11-20T12:08:18;98985.50;;;5.87;100.00
70930;BME280;58588;48.102;19.682;2022-11-20T12:11:31;98987.22;;;6.12;100.00
70930;BME280;58588;48.102;19.682;2022-11-20T12:14:37;98980.50;;;6.25;100.00
70930;BME280;58588;48.102;19.682;2022-11-20T12:17:40;98980.72;;;6.62;100.00
70930;BME280;58588;48.102;19.682;2022-11-20T12:20:52;98981.81;;;6.37;100.00
70930;BME280;58588;48.102;19.682;2022-11-20T12:27:39;98976.59;;;6.43;100.00
70930;BME280;58588;48.102;19.682;2022-11-20T12:30:53;98985.41;;;6.60;100.00
70930;BME280;58588;48.102;19.682;2022-11-20T12:34:12;98996.03;;;6.77;100.00
70930;BME280;58588;48.102;19.682;2022-11-20T12:37:29;98992.78;;;6.89;100.00
70930;BME280;58588;48.102;19.682;2022-11-20T12:40:40;98990.34;;;7.11;100.00
70930;BME280;58588;48.102;19.682;2022-11-20T12:43:56;98982.22;;;7.27;100.00
70930;BME280;58588;48.102;19.682;2022-11-20T12:47:25;98979.31;;;7.14;100.00
70930;BME280;58588;48.102;19.682;2022-11-20T12:50:39;98977.59;;;6.90;100.00
70930;BME280;58588;48.102;19.682;2022-11-20T12:53:51;98978.00;;;7.02;100.00
70930;BME280;58588;48.102;19.682;2022-11-20T12:57:03;98981.94;;;6.83;100.00
70930;BME280;58588;48.102;19.682;2022-11-20T13:00:14;98980.56;;;6.56;100.00
70930;BME280;58588;48.102;19.682;2022-11-20T13:03:34;98985.03;;;6.24;100.00
70930;BME280;58588;48.102;19.682;2022-11-20T13:06:40;98969.28;;;6.21;100.00
70930;BME280;58588;48.102;19.682;2022-11-20T13:09:45;98960.63;;;6.03;100.00
70930;BME280;58588;48.102;19.682;2022-11-20T13:12:54;98964.66;;;6.07;100.00
70930;BME280;58588;48.102;19.682;2022-11-20T13:16:08;98958.63;;;6.13;100.00
70930;BME280;58588;48.102;19.682;2022-11-20T13:19:15;98950.94;;;5.77;100.00
70930;BME280;58588;48.102;19.682;2022-11-20T13:22:24;98948.59;;;5.82;100.00
70930;BME280;58588;48.102;19.682;2022-11-20T13:25:30;98941.56;;;5.73;100.00
70930;BME280;58588;48.102;19.682;2022-11-20T13:28:32;98944.44;;;5.72;100.00
70930;BME280;58588;48.102;19.682;2022-11-20T13:31:42;98950.94;;;5.69;100.00
70930;BME280;58588;48.102;19.682;2022-11-20T13:34:52;98953.47;;;5.46;100.00
70930;BME280;58588;48.102;19.682;2022-11-20T13:38:03;98944.75;;;5.60;100.00
70930;BME280;58588;48.102;19.682;2022-11-20T13:41:08;98949.41;;;5.75;100.00
70930;BME280;58588;48.102;19.682;2022-11-20T13:44:27;98955.25;;;5.86;100.00
70930;BME280;58588;48.102;19.682;2022-11-20T13:47:32;98963.47;;;5.85;100.00
70930;BME280;58588;48.102;19.682;2022-11-20T13:50:46;98964.94;;;5.87;100.00
70930;BME280;58588;48.102;19.682;2022-11-20T13:54:28;98973.00;;;5.79;100.00
70930;BME280;58588;48.102;19.682;2022-11-20T13:57:48;98967.66;;;5.47;100.00
70930;BME280;58588;48.102;19.682;2022-11-20T14:00:58;98976.50;;;5.47;100.00
70930;BME280;58588;48.102;19.682;2022-11-20T14:04:08;98979.69;;;5.34;100.00
70930;BME280;58588;48.102;19.682;2022-11-20T14:07:10;98979.31;;;5.21;100.00
70930;BME280;58588;48.102;19.682;2022-11-20T14:10:20;98974.81;;;5.30;100.00
70930;BME280;58588;48.102;19.682;2022-11-20T14:13:22;98983.66;;;5.30;100.00
70930;BME280;58588;48.102;19.682;2022-11-20T14:16:26;98972.16;;;5.30;100.00
70930;BME280;58588;48.102;19.682;2022-11-20T14:19:30;98957.41;;;5.09;100.00
70930;BME280;58588;48.102;19.682;2022-11-20T14:22:34;98950.59;;;5.23;100.00
70930;BME280;58588;48.102;19.682;2022-11-20T14:25:41;98945.59;;;5.28;100.00
70930;BME280;58588;48.102;19.682;2022-11-20T14:28:48;98953.44;;;5.30;100.00
70930;BME280;58588;48.102;19.682;2022-11-20T14:31:52;98954.28;;;5.30;100.00
70930;BME280;58588;48.102;19.682;2022-11-20T14:35:02;98956.28;;;5.28;100.00
70930;BME280;58588;48.102;19.682;2022-11-20T14:38:10;98965.97;;;5.37;100.00
70930;BME280;58588;48.102;19.682;2022-11-20T14:41:17;98970.13;;;5.32;100.00
70930;BME280;58588;48.102;19.682;2022-11-20T14:44:23;98967.72;;;4.96;100.00
70930;BME280;58588;48.102;19.682;2022-11-20T14:47:29;98965.34;;;4.77;100.00
70930;BME280;58588;48.102;19.682;2022-11-20T14:50:33;98961.66;;;4.70;100.00
70930;BME280;58588;48.102;19.682;2022-11-20T14:53:35;98963.50;;;4.69;100.00
70930;BME280;58588;48.102;19.682;2022-11-20T14:56:39;98970.44;;;4.54;100.00
70930;BME280;58588;48.102;19.682;2022-11-20T14:59:41;98979.50;;;4.35;100.00
70930;BME280;58588;48.102;19.682;2022-11-20T15:02:45;98974.00;;;4.37;100.00
70930;BME280;58588;48.102;19.682;2022-11-20T15:05:51;98967.59;;;4.21;100.00
70930;BME280;58588;48.102;19.682;2022-11-20T15:08:53;98966.66;;;4.30;100.00
70930;BME280;58588;48.102;19.682;2022-11-20T15:11:57;98963.28;;;4.20;100.00
70930;BME280;58588;48.102;19.682;2022-11-20T15:15:00;98971.91;;;4.14;100.00
70930;BME280;58588;48.102;19.682;2022-11-20T15:18:03;98971.63;;;4.25;100.00
70930;BME280;58588;48.102;19.682;2022-11-20T15:21:11;98968.81;;;4.27;100.00
70930;BME280;58588;48.102;19.682;2022-11-20T15:24:14;98975.16;;;4.26;100.00
70930;BME280;58588;48.102;19.682;2022-11-20T15:27:16;98988.69;;;4.33;100.00
70930;BME280;58588;48.102;19.682;2022-11-20T15:30:19;98997.78;;;4.22;100.00
70930;BME280;58588;48.102;19.682;2022-11-20T15:33:22;99009.75;;;4.18;100.00
70930;BME280;58588;48.102;19.682;2022-11-20T15:36:25;99002.00;;;4.07;100.00
70930;BME280;58588;48.102;19.682;2022-11-20T15:39:27;99009.50;;;4.03;100.00
70930;BME280;58588;48.102;19.682;2022-11-20T15:42:29;99003.72;;;3.90;100.00
70930;BME280;58588;48.102;19.682;2022-11-20T15:45:36;99012.84;;;4.05;100.00
70930;BME280;58588;48.102;19.682;2022-11-20T15:48:42;99013.59;;;4.15;100.00
70930;BME280;58588;48.102;19.682;2022-11-20T15:51:49;99012.19;;;4.03;100.00
70930;BME280;58588;48.102;19.682;2022-11-20T15:54:53;99009.19;;;4.06;100.00
70930;BME280;58588;48.102;19.682;2022-11-20T15:57:55;99009.78;;;3.74;100.00
70930;BME280;58588;48.102;19.682;2022-11-20T16:00:57;99010.16;;;3.79;100.00
70930;BME280;58588;48.102;19.682;2022-11-20T16:03:59;99004.13;;;3.77;100.00
70930;BME280;58588;48.102;19.682;2022-11-20T16:07:03;99004.25;;;3.67;100.00
70930;BME280;58588;48.102;19.682;2022-11-20T16:10:06;99002.03;;;3.45;100.00
70930;BME280;58588;48.102;19.682;2022-11-20T16:13:12;99004.09;;;3.33;100.00
70930;BME280;58588;48.102;19.682;2022-11-20T16:16:34;99008.13;;;3.19;100.00